createdAt,value
2023-05-17T00:02:00.071Z,48.82
2023-05-17T00:04:29.537Z,49.05
2023-05-17T00:06:57.651Z,48.65
2023-05-17T00:09:25.658Z,48.88
2023-05-17T00:11:53.728Z,48.90
2023-05-17T00:14:21.804Z,48.88
2023-05-17T00:16:49.876Z,49.02
2023-05-17T00:19:18.006Z,48.81
2023-05-17T00:21:47.510Z,48.60
2023-05-17T00:24:15.405Z,49.02
2023-05-17T00:26:43.569Z,48.83
2023-05-17T00:29:11.946Z,48.84
2023-05-17T00:31:39.927Z,48.86
2023-05-17T00:34:07.984Z,48.93
2023-05-17T00:36:35.964Z,48.99
2023-05-17T00:39:05.440Z,48.57
2023-05-17T00:41:33.442Z,48.74
2023-05-17T00:44:01.420Z,48.65
2023-05-17T00:46:29.410Z,48.65
2023-05-17T00:48:57.556Z,48.50
2023-05-17T00:51:25.669Z,48.87
2023-05-17T00:53:53.622Z,48.54
2023-05-17T00:56:22.919Z,48.73
2023-05-17T00:58:50.970Z,48.53
2023-05-17T01:01:18.936Z,48.78
2023-05-17T01:03:47.339Z,48.93
2023-05-17T01:06:15.503Z,48.66
2023-05-17T01:08:43.616Z,49.02
2023-05-17T01:11:15.665Z,48.76
2023-05-17T01:13:50.044Z,48.95
2023-05-17T01:16:19.968Z,48.55
2023-05-17T01:18:50.061Z,48.76
2023-05-17T01:21:26.839Z,48.86
2023-05-17T01:23:57.253Z,49.05
2023-05-17T01:26:40.986Z,48.84
2023-05-17T01:29:10.022Z,48.93
2023-05-17T01:31:38.197Z,48.97
2023-05-17T01:34:08.516Z,48.59
2023-05-17T01:36:37.384Z,48.91
2023-05-17T01:39:05.560Z,48.95
2023-05-17T01:41:37.954Z,48.55
2023-05-17T01:44:09.717Z,48.65
2023-05-17T01:46:40.585Z,48.64
2023-05-17T01:49:12.078Z,48.60
2023-05-17T01:51:46.434Z,48.79
2023-05-17T01:54:14.428Z,48.83
2023-05-17T01:56:44.912Z,49.11
2023-05-17T01:59:13.001Z,49.12
2023-05-17T02:01:40.997Z,49.20
2023-05-17T02:04:09.224Z,49.16
2023-05-17T02:06:37.404Z,48.94
2023-05-17T02:09:05.624Z,49.02
2023-05-17T02:11:33.660Z,48.93
2023-05-17T02:14:02.980Z,49.37
2023-05-17T02:16:31.051Z,49.00
2023-05-17T02:18:59.179Z,49.19
2023-05-17T02:21:27.324Z,48.99
2023-05-17T02:23:55.796Z,49.03
2023-05-17T02:26:23.873Z,49.43
2023-05-17T02:28:51.877Z,49.04
2023-05-17T02:31:21.266Z,49.41
2023-05-17T02:33:49.241Z,49.26
2023-05-17T02:36:17.280Z,48.98
2023-05-17T02:38:45.338Z,49.12
2023-05-17T02:41:13.346Z,48.88
2023-05-17T02:43:41.754Z,48.89
2023-05-17T02:46:09.788Z,49.02
2023-05-17T02:48:39.220Z,49.38
2023-05-17T02:51:07.472Z,49.24
2023-05-17T02:53:35.443Z,49.37
2023-05-17T02:56:04.126Z,49.27
2023-05-17T02:58:32.177Z,49.04
2023-05-17T03:01:00.188Z,48.95
2023-05-17T03:03:28.347Z,49.24
2023-05-17T03:06:01.072Z,49.01
2023-05-17T03:08:29.197Z,49.22
2023-05-17T03:10:58.575Z,49.04
2023-05-17T03:13:26.712Z,48.89
2023-05-17T03:15:54.748Z,49.48
2023-05-17T03:18:22.915Z,49.08
2023-05-17T03:20:51.031Z,49.45
2023-05-17T03:23:21.513Z,49.26
2023-05-17T03:25:49.509Z,49.17
2023-05-17T03:28:17.582Z,49.25
2023-05-17T03:30:45.725Z,49.48
2023-05-17T03:33:13.792Z,49.23
2023-05-17T03:35:41.857Z,48.89
2023-05-17T03:38:09.912Z,48.86
2023-05-17T03:40:39.246Z,49.17
2023-05-17T03:43:07.228Z,48.95
2023-05-17T03:45:35.156Z,48.87
2023-05-17T03:48:03.264Z,49.16
2023-05-17T03:50:32.712Z,49.12
2023-05-17T03:53:00.794Z,49.30
2023-05-17T03:55:28.967Z,48.99
2023-05-17T03:57:58.472Z,48.86
2023-05-17T04:00:26.415Z,49.05
2023-05-17T04:02:54.437Z,49.15
2023-05-17T04:05:23.666Z,49.18
2023-05-17T04:07:51.792Z,49.41
2023-05-17T04:10:19.823Z,49.27
2023-05-17T04:12:47.860Z,49.04
2023-05-17T04:15:19.064Z,49.03
2023-05-17T04:17:47.160Z,49.08
2023-05-17T04:20:15.313Z,49.37
2023-05-17T04:22:43.260Z,49.27
2023-05-17T04:25:11.443Z,49.31
2023-05-17T04:27:40.102Z,49.19
2023-05-17T04:30:09.457Z,49.09
2023-05-17T04:32:38.908Z,49.12
2023-05-17T04:35:07.708Z,49.05
2023-05-17T04:37:36.412Z,49.39
2023-05-17T04:40:04.555Z,49.26
2023-05-17T04:42:32.539Z,49.01
2023-05-17T04:45:00.601Z,49.38
2023-05-17T04:47:28.776Z,49.25
2023-05-17T04:49:58.220Z,49.16
2023-05-17T04:52:26.167Z,49.15
2023-05-17T04:54:54.179Z,49.46
2023-05-17T04:57:22.594Z,48.93
2023-05-17T04:59:50.729Z,49.18
2023-05-17T05:02:18.782Z,49.26
2023-05-17T05:04:47.083Z,49.08
2023-05-17T05:07:19.213Z,49.36
2023-05-17T05:09:47.205Z,49.58
2023-05-17T05:12:15.188Z,49.09
2023-05-17T05:14:43.313Z,49.31
2023-05-17T05:17:11.278Z,49.36
2023-05-17T05:19:39.395Z,49.36
2023-05-17T05:22:07.423Z,49.35
2023-05-17T05:24:36.751Z,49.18
2023-05-17T05:27:06.971Z,48.86
2023-05-17T05:29:35.193Z,49.21
2023-05-17T05:32:03.396Z,49.01
2023-05-17T05:34:31.733Z,49.30
2023-05-17T05:36:59.703Z,49.00
2023-05-17T05:39:29.100Z,49.27
2023-05-17T05:41:58.634Z,49.02
2023-05-17T05:44:26.779Z,49.17
2023-05-17T05:46:54.797Z,49.11
2023-05-17T05:49:22.816Z,49.11
2023-05-17T05:51:50.727Z,49.28
2023-05-17T05:54:18.854Z,49.24
2023-05-17T05:56:46.964Z,49.30
2023-05-17T05:59:16.359Z,48.91
2023-05-17T06:01:44.371Z,49.13
2023-05-17T06:04:12.372Z,49.04
2023-05-17T06:06:40.787Z,48.85
2023-05-17T06:09:12.299Z,48.83
2023-05-17T06:11:40.330Z,48.95
2023-05-17T06:14:08.533Z,48.67
2023-05-17T06:16:37.980Z,48.86
2023-05-17T06:19:05.955Z,48.52
2023-05-17T06:21:33.993Z,48.85
2023-05-17T06:24:04.947Z,48.55
2023-05-17T06:26:33.187Z,48.61
2023-05-17T06:29:01.366Z,48.66
2023-05-17T06:31:29.370Z,48.88
2023-05-17T06:33:58.991Z,49.06
2023-05-17T06:36:27.130Z,49.15
2023-05-17T06:38:55.059Z,48.83
2023-05-17T06:41:25.694Z,48.70
2023-05-17T06:43:53.763Z,48.59
2023-05-17T06:46:21.732Z,48.37
2023-05-17T06:48:51.233Z,48.69
2023-05-17T06:51:21.364Z,48.50
2023-05-17T06:53:50.327Z,48.59
2023-05-17T06:56:18.385Z,48.22
2023-05-17T06:58:46.468Z,48.18
2023-05-17T07:01:14.658Z,48.40
2023-05-17T07:03:42.752Z,48.41
2023-05-17T07:06:10.831Z,48.36
2023-05-17T07:08:40.309Z,48.39
2023-05-17T07:11:08.334Z,48.16
2023-05-17T07:13:36.449Z,48.35
2023-05-17T07:16:04.593Z,47.94
2023-05-17T07:18:32.754Z,48.24
2023-05-17T07:21:00.942Z,47.90
2023-05-17T07:23:29.008Z,47.87
2023-05-17T07:25:58.468Z,48.17
2023-05-17T07:28:29.471Z,47.71
2023-05-17T07:30:57.529Z,47.77
2023-05-17T07:33:25.672Z,47.78
2023-05-17T07:35:53.850Z,48.12
2023-05-17T07:38:21.855Z,48.07
2023-05-17T07:40:49.786Z,48.10
2023-05-17T07:43:19.270Z,47.93
2023-05-17T07:45:47.569Z,48.17
2023-05-17T07:48:15.695Z,47.99
2023-05-17T07:50:44.370Z,47.75
2023-05-17T07:53:12.513Z,48.02
2023-05-17T07:55:40.764Z,47.82
2023-05-17T07:58:09.449Z,47.67
2023-05-17T08:00:38.884Z,47.88
2023-05-17T08:03:08.478Z,47.78
2023-05-17T08:05:36.479Z,48.16
2023-05-17T08:08:04.479Z,48.11
2023-05-17T08:10:32.879Z,47.77
2023-05-17T08:13:00.823Z,48.00
2023-05-17T08:15:29.465Z,48.46
2023-05-17T08:18:00.364Z,48.70
2023-05-17T08:20:29.622Z,48.74
2023-05-17T08:22:57.679Z,48.13
2023-05-17T08:25:25.903Z,48.24
2023-05-17T08:27:53.904Z,48.42
2023-05-17T08:32:56.772Z,48.19
2023-05-17T08:35:28.914Z,47.79
2023-05-17T08:37:57.133Z,48.02
2023-05-17T08:40:25.404Z,48.34
2023-05-17T08:42:53.567Z,48.11
2023-05-17T08:45:22.180Z,47.94
2023-05-17T08:47:51.242Z,48.20
2023-05-17T08:50:19.473Z,48.08
2023-05-17T08:52:48.860Z,48.31
2023-05-17T08:55:18.223Z,48.20
2023-05-17T08:57:47.151Z,48.02
2023-05-17T09:00:16.268Z,48.33
2023-05-17T09:02:44.461Z,48.53
2023-05-17T09:05:14.287Z,48.49
2023-05-17T09:07:42.987Z,48.39
2023-05-17T09:10:13.754Z,48.26
2023-05-17T09:12:41.786Z,48.65
2023-05-17T09:15:16.744Z,48.17
2023-05-17T09:17:44.909Z,48.94
2023-05-17T09:20:13.062Z,48.77
2023-05-17T09:22:41.434Z,48.25
2023-05-17T09:25:10.144Z,48.53
2023-05-17T09:27:39.602Z,48.31
2023-05-17T09:30:11.578Z,48.32
2023-05-17T09:32:44.735Z,48.19
2023-05-17T09:35:13.135Z,48.35
2023-05-17T09:37:41.173Z,48.26
2023-05-17T09:40:12.920Z,48.07
2023-05-17T09:42:42.367Z,48.65
2023-05-17T09:45:10.988Z,48.15
2023-05-17T09:47:39.034Z,48.13
2023-05-17T09:50:08.474Z,48.23
2023-05-17T09:52:37.583Z,48.12
2023-05-17T09:55:06.775Z,48.04
2023-05-17T09:57:38.434Z,48.78
2023-05-17T10:00:11.587Z,48.89
2023-05-17T10:02:41.198Z,48.49
2023-05-17T10:05:11.703Z,48.40
2023-05-17T10:07:39.924Z,48.37
2023-05-17T10:10:09.227Z,48.44
2023-05-17T10:12:38.583Z,48.21
2023-05-17T10:15:09.386Z,48.09
2023-05-17T10:17:39.422Z,48.22
2023-05-17T10:20:10.538Z,48.24
2023-05-17T10:22:38.853Z,48.42
2023-05-17T10:25:07.854Z,48.74
2023-05-17T10:27:35.916Z,48.46
2023-05-17T10:30:04.089Z,48.60
2023-05-17T10:32:33.553Z,48.68
2023-05-17T10:35:10.605Z,48.71
2023-05-17T10:37:41.295Z,49.00
2023-05-17T10:40:13.510Z,48.74
2023-05-17T10:42:42.374Z,49.51
2023-05-17T10:45:10.974Z,49.10
2023-05-17T10:47:41.432Z,48.91
2023-05-17T10:50:13.083Z,48.79
2023-05-17T10:52:46.776Z,48.58
2023-05-17T10:55:14.833Z,48.87
2023-05-17T10:57:50.983Z,48.58
2023-05-17T11:00:21.319Z,48.45
2023-05-17T11:02:51.281Z,48.23
2023-05-17T11:05:25.826Z,48.25
2023-05-17T11:07:54.238Z,48.19
2023-05-17T11:10:22.751Z,48.27
2023-05-17T11:12:55.378Z,48.18
2023-05-17T11:15:26.622Z,48.28
2023-05-17T11:17:57.088Z,47.95
2023-05-17T11:20:32.696Z,47.75
2023-05-17T11:23:02.285Z,47.94
2023-05-17T11:25:30.730Z,47.83
2023-05-17T11:27:59.078Z,48.04
2023-05-17T11:30:28.828Z,47.95
2023-05-17T11:33:01.087Z,47.90
2023-05-17T11:35:30.088Z,47.76
2023-05-17T11:38:16.249Z,47.91
2023-05-17T11:40:44.296Z,47.89
2023-05-17T11:43:16.371Z,47.80
2023-05-17T11:45:45.396Z,47.64
2023-05-17T11:48:15.209Z,47.76
2023-05-17T11:50:43.640Z,48.11
2023-05-17T11:53:11.776Z,47.98
2023-05-17T11:55:40.193Z,48.10
2023-05-17T11:58:09.444Z,47.94
2023-05-17T12:00:38.870Z,47.96
2023-05-17T12:03:26.144Z,47.58
2023-05-17T12:06:04.319Z,47.49
2023-05-17T12:08:32.613Z,47.76
2023-05-17T12:11:21.829Z,47.84
2023-05-17T12:13:52.004Z,47.75
2023-05-17T12:16:22.742Z,47.96
2023-05-17T12:18:52.808Z,49.46
2023-05-17T12:21:21.469Z,48.75
2023-05-17T12:23:52.599Z,48.99
2023-05-17T12:26:21.694Z,49.31
2023-05-17T12:28:54.768Z,49.35
2023-05-17T12:31:23.966Z,49.37
2023-05-17T12:33:53.455Z,49.73
2023-05-17T12:36:21.637Z,49.43
2023-05-17T12:38:49.694Z,49.95
2023-05-17T12:41:17.706Z,49.83
2023-05-17T12:43:46.306Z,49.50
2023-05-17T12:46:14.861Z,49.42
2023-05-17T12:48:43.271Z,49.53
2023-05-17T12:51:13.747Z,49.65
2023-05-17T12:53:42.493Z,49.67
2023-05-17T12:56:10.693Z,49.60
2023-05-17T12:58:38.747Z,49.58
2023-05-17T13:01:10.754Z,49.67
2023-05-17T13:03:38.969Z,49.69
2023-05-17T13:06:09.652Z,49.64
2023-05-17T13:08:39.156Z,49.65
2023-05-17T13:11:08.527Z,49.86
2023-05-17T13:13:36.587Z,49.64
2023-05-17T13:16:04.809Z,49.75
2023-05-17T13:18:35.742Z,49.46
2023-05-17T13:21:03.989Z,49.72
2023-05-17T13:23:32.062Z,49.71
2023-05-17T13:26:01.473Z,49.90
2023-05-17T13:28:29.548Z,49.64
2023-05-17T13:30:57.555Z,49.63
2023-05-17T13:33:26.586Z,49.55
2023-05-17T13:35:54.724Z,49.83
2023-05-17T13:38:25.373Z,49.75
2023-05-17T13:40:53.327Z,49.42
2023-05-17T13:43:22.707Z,49.65
2023-05-17T13:45:54.542Z,49.50
2023-05-17T13:48:22.627Z,49.47
2023-05-17T13:50:50.710Z,49.48
2023-05-17T13:53:18.755Z,49.72
2023-05-17T13:55:46.914Z,49.40
2023-05-17T13:58:16.761Z,49.33
2023-05-17T14:00:46.273Z,49.55
2023-05-17T14:03:14.991Z,49.26
2023-05-17T14:05:43.407Z,48.96
2023-05-17T14:08:12.845Z,48.93
2023-05-17T14:10:40.865Z,48.60
2023-05-17T14:13:08.897Z,48.55
2023-05-17T14:15:38.558Z,48.53
2023-05-17T14:18:08.309Z,48.73
2023-05-17T14:20:36.369Z,48.76
2023-05-17T14:23:04.358Z,48.66
2023-05-17T14:25:32.279Z,48.63
2023-05-17T14:28:00.354Z,48.47
2023-05-17T14:30:28.538Z,48.40
2023-05-17T14:32:56.621Z,48.25
2023-05-17T14:35:26.095Z,48.03
2023-05-17T14:37:54.171Z,47.67
2023-05-17T14:40:22.438Z,47.89
2023-05-17T14:42:50.477Z,47.63
2023-05-17T14:45:19.168Z,47.78
2023-05-17T14:47:47.323Z,47.45
2023-05-17T14:50:15.332Z,47.47
2023-05-17T14:52:44.993Z,47.49
2023-05-17T14:55:13.832Z,47.49
2023-05-17T14:57:42.037Z,47.32
2023-05-17T15:00:11.342Z,47.22
2023-05-17T15:02:39.692Z,47.18
2023-05-17T15:05:08.558Z,47.21
2023-05-17T15:07:36.726Z,47.16
2023-05-17T15:10:07.157Z,47.42
2023-05-17T15:12:35.104Z,47.49
2023-05-17T15:15:03.120Z,47.70
2023-05-17T15:17:31.277Z,48.14
2023-05-17T15:19:59.967Z,47.90
2023-05-17T15:22:27.973Z,47.71
2023-05-17T15:24:57.768Z,47.72
2023-05-17T15:27:27.225Z,48.36
2023-05-17T15:29:55.199Z,48.71
2023-05-17T15:32:23.269Z,49.00
2023-05-17T15:34:52.707Z,48.82
2023-05-17T15:37:20.796Z,49.57
2023-05-17T15:39:48.936Z,48.20
2023-05-17T15:42:16.865Z,48.72
2023-05-17T15:44:46.242Z,49.16
2023-05-17T15:47:14.448Z,48.76
2023-05-17T15:49:42.481Z,49.46
2023-05-17T15:52:12.786Z,49.72
2023-05-17T15:54:42.180Z,49.59
2023-05-17T15:57:10.172Z,48.88
2023-05-17T15:59:38.169Z,49.05
2023-05-17T16:02:07.695Z,48.72
2023-05-17T16:04:35.804Z,48.69
2023-05-17T16:07:03.865Z,49.48
2023-05-17T16:09:31.936Z,49.57
2023-05-17T16:11:59.974Z,49.08
2023-05-17T16:14:28.037Z,49.25
2023-05-17T16:16:56.197Z,49.45
2023-05-17T16:19:26.636Z,49.77
2023-05-17T16:21:54.729Z,49.61
2023-05-17T16:24:22.764Z,48.88
2023-05-17T16:26:50.846Z,49.41
2023-05-17T16:29:19.084Z,49.20
2023-05-17T16:31:47.914Z,49.23
2023-05-17T16:34:16.098Z,48.97
2023-05-17T16:36:47.795Z,49.93
2023-05-17T16:39:15.795Z,49.54
2023-05-17T16:41:43.943Z,49.73
2023-05-17T16:44:12.038Z,49.57
2023-05-17T16:46:40.170Z,49.53
2023-05-17T16:49:08.270Z,49.96
2023-05-17T16:51:36.303Z,49.48
2023-05-17T16:54:06.041Z,49.59
2023-05-17T16:56:34.085Z,49.81
2023-05-17T16:59:02.124Z,49.82
2023-05-17T17:01:30.643Z,49.84
2023-05-17T17:03:58.752Z,49.95
2023-05-17T17:06:26.801Z,49.92
2023-05-17T17:08:57.879Z,50.02
2023-05-17T17:11:27.331Z,50.05
2023-05-17T17:13:55.303Z,50.22
2023-05-17T17:16:23.304Z,50.14
2023-05-17T17:18:51.346Z,50.23
2023-05-17T17:21:19.410Z,50.34
2023-05-17T17:23:47.804Z,50.37
2023-05-17T17:26:16.165Z,50.44
2023-05-17T17:28:45.558Z,50.46
2023-05-17T17:31:13.554Z,50.05
2023-05-17T17:33:41.591Z,50.28
2023-05-17T17:36:11.317Z,49.84
2023-05-17T17:38:39.286Z,49.71
2023-05-17T17:41:07.485Z,49.95
2023-05-17T17:43:35.560Z,49.92
2023-05-17T17:46:05.101Z,50.22
2023-05-17T17:48:33.152Z,50.17
2023-05-17T17:51:01.201Z,49.95
2023-05-17T17:53:29.345Z,49.93
2023-05-17T17:55:57.414Z,49.92
2023-05-17T17:58:25.406Z,49.73
2023-05-17T18:00:53.892Z,50.38
2023-05-17T18:03:23.275Z,50.02
2023-05-17T18:05:51.271Z,50.20
2023-05-17T18:08:19.219Z,50.09
2023-05-17T18:10:47.266Z,50.29
2023-05-17T18:13:15.310Z,50.37
2023-05-17T18:15:44.005Z,50.50
2023-05-17T18:18:12.243Z,50.61
2023-05-17T18:20:41.682Z,50.62
2023-05-17T18:23:09.752Z,50.82
2023-05-17T18:25:37.779Z,50.80
2023-05-17T18:28:08.083Z,51.02
2023-05-17T18:30:36.952Z,50.73
2023-05-17T18:33:07.100Z,50.68
2023-05-17T18:35:35.212Z,50.82
2023-05-17T18:38:04.600Z,50.59
2023-05-17T18:40:32.640Z,50.54
2023-05-17T18:43:00.725Z,50.69
2023-05-17T18:45:28.738Z,50.64
2023-05-17T18:47:56.768Z,50.32
2023-05-17T18:50:24.901Z,50.60
2023-05-17T18:52:53.382Z,50.46
2023-05-17T18:55:24.512Z,50.37
2023-05-17T18:57:52.829Z,50.48
2023-05-17T19:00:21.271Z,50.36
2023-05-17T19:02:49.321Z,50.60
2023-05-17T19:05:17.333Z,50.28
2023-05-17T19:07:45.579Z,50.37
2023-05-17T19:10:48.485Z,50.42
2023-05-17T19:13:16.569Z,50.38
2023-05-17T19:15:51.025Z,50.65
2023-05-17T19:18:20.216Z,50.48
2023-05-17T19:20:48.311Z,50.51
2023-05-17T19:23:19.095Z,50.08
2023-05-17T19:25:48.441Z,50.15
2023-05-17T19:28:17.561Z,50.14
2023-05-17T19:30:45.591Z,50.31
2023-05-17T19:33:13.655Z,50.38
2023-05-17T19:35:43.134Z,50.59
2023-05-17T19:38:11.318Z,51.11
2023-05-17T19:40:47.081Z,50.77
2023-05-17T19:43:16.558Z,50.89
2023-05-17T19:45:44.636Z,51.20
2023-05-17T19:48:18.256Z,51.37
2023-05-17T19:50:46.312Z,50.95
2023-05-17T19:53:14.287Z,51.25
2023-05-17T19:55:45.719Z,50.85
2023-05-17T19:58:13.691Z,51.21
2023-05-17T20:00:44.253Z,50.84
2023-05-17T20:03:12.409Z,50.72
2023-05-17T20:05:40.565Z,51.01
2023-05-17T20:08:13.971Z,50.94
2023-05-17T20:10:43.861Z,50.92
2023-05-17T20:13:18.047Z,50.99
2023-05-17T20:15:47.531Z,50.91
2023-05-17T20:18:16.660Z,50.59
2023-05-17T20:20:51.002Z,51.13
2023-05-17T20:23:18.975Z,51.02
2023-05-17T20:25:47.258Z,51.27
2023-05-17T20:28:16.356Z,51.22
2023-05-17T20:30:45.373Z,50.70
2023-05-17T20:33:14.832Z,50.85
2023-05-17T20:35:43.995Z,51.02
2023-05-17T20:38:12.110Z,51.27
2023-05-17T20:40:47.061Z,51.06
2023-05-17T20:43:16.770Z,51.24
2023-05-17T20:45:45.940Z,50.92
2023-05-17T20:48:16.469Z,51.00
2023-05-17T20:50:44.686Z,50.83
2023-05-17T20:53:12.740Z,51.04
2023-05-17T20:55:44.228Z,51.17
2023-05-17T20:58:12.490Z,51.04
2023-05-17T21:00:42.542Z,51.04
2023-05-17T21:03:11.197Z,51.17
2023-05-17T21:05:40.782Z,50.92
2023-05-17T21:08:10.019Z,51.05
2023-05-17T21:10:40.723Z,51.27
2023-05-17T21:13:10.956Z,50.94
2023-05-17T21:15:39.062Z,51.01
2023-05-17T21:18:08.254Z,51.04
2023-05-17T21:20:36.329Z,51.36
2023-05-17T21:23:05.812Z,51.19
2023-05-17T21:25:35.249Z,51.18
2023-05-17T21:28:03.260Z,51.22
2023-05-17T21:30:32.283Z,51.32
2023-05-17T21:33:00.603Z,51.62
2023-05-17T21:35:28.601Z,52.29
2023-05-17T21:37:57.446Z,51.53
2023-05-17T21:40:29.265Z,51.35
2023-05-17T21:42:58.316Z,51.48
2023-05-17T21:45:26.398Z,51.79
2023-05-17T21:47:54.340Z,51.79
2023-05-17T21:50:23.316Z,51.71
2023-05-17T21:52:51.368Z,51.53
2023-05-17T21:55:20.291Z,51.56
2023-05-17T21:57:49.744Z,51.21
2023-05-17T22:00:22.333Z,51.50
2023-05-17T22:02:50.754Z,51.23
2023-05-17T22:05:18.896Z,51.55
2023-05-17T22:07:47.714Z,51.65
2023-05-17T22:10:17.849Z,51.40
2023-05-17T22:12:47.525Z,51.65
2023-05-17T22:15:17.229Z,51.50
2023-05-17T22:17:51.805Z,51.50
2023-05-17T22:20:24.249Z,51.87
2023-05-17T22:22:52.313Z,51.73
2023-05-17T22:25:20.902Z,51.88
2023-05-17T22:27:48.940Z,51.58
2023-05-17T22:30:18.972Z,51.68
2023-05-17T22:32:47.077Z,51.47
2023-05-17T22:35:15.224Z,51.50
2023-05-17T22:37:45.501Z,51.74
2023-05-17T22:40:14.453Z,51.95
2023-05-17T22:42:43.214Z,51.86
2023-05-17T22:45:12.710Z,51.86
2023-05-17T22:47:43.535Z,51.78
2023-05-17T22:50:13.636Z,51.88
2023-05-17T22:52:42.798Z,51.91
2023-05-17T22:55:11.395Z,51.77
2023-05-17T22:57:39.395Z,52.04
2023-05-17T23:00:09.404Z,51.86
2023-05-17T23:02:37.389Z,51.91
2023-05-17T23:05:07.636Z,51.87
2023-05-17T23:07:38.630Z,51.85
2023-05-17T23:10:07.462Z,51.74
2023-05-17T23:12:36.056Z,52.03
2023-05-17T23:15:05.126Z,51.76
2023-05-17T23:17:33.462Z,51.71
2023-05-17T23:20:07.190Z,51.98
2023-05-17T23:22:36.913Z,51.96
2023-05-17T23:25:06.494Z,52.02
2023-05-17T23:27:35.397Z,52.04
2023-05-17T23:30:04.405Z,51.73
2023-05-17T23:32:32.693Z,51.90
2023-05-17T23:35:04.057Z,51.65
2023-05-17T23:37:32.196Z,51.65
2023-05-17T23:40:01.497Z,51.74
2023-05-17T23:42:29.790Z,51.86
2023-05-17T23:44:57.858Z,51.70
2023-05-17T23:47:26.013Z,51.82
2023-05-17T23:49:54.076Z,51.74
2023-05-17T23:52:23.759Z,51.60
2023-05-17T23:54:52.015Z,51.85
2023-05-17T23:57:21.379Z,51.61
2023-05-17T23:59:49.411Z,51.52
